createdAt,value
2022-08-25T00:01:54.234Z,10.35
2022-08-25T00:04:24.071Z,8.70
2022-08-25T00:06:53.539Z,9.57
2022-08-25T00:09:25.157Z,10.10
2022-08-25T00:11:53.248Z,11.48
2022-08-25T00:14:28.143Z,12.73
2022-08-25T00:16:56.117Z,12.73
2022-08-25T00:19:28.792Z,13.52
2022-08-25T00:21:56.306Z,12.60
2022-08-25T00:24:24.717Z,12.55
2022-08-25T00:26:56.369Z,13.18
2022-08-25T00:29:28.683Z,13.23
2022-08-25T00:31:57.957Z,12.60
2022-08-25T00:34:31.891Z,12.00
2022-08-25T00:36:58.940Z,13.00
2022-08-25T00:39:27.607Z,13.75
2022-08-25T00:41:57.598Z,13.43
2022-08-25T00:44:28.217Z,13.18
2022-08-25T00:47:02.497Z,13.10
2022-08-25T00:49:41.595Z,13.88
2022-08-25T00:52:08.476Z,13.05
2022-08-25T00:54:49.956Z,12.35
2022-08-25T00:57:34.032Z,13.60
2022-08-25T01:00:12.898Z,14.18
2022-08-25T01:02:40.459Z,14.15
2022-08-25T01:05:08.183Z,14.73
2022-08-25T01:07:37.179Z,14.23
2022-08-25T01:10:07.829Z,13.98
2022-08-25T01:12:37.546Z,12.10
2022-08-25T01:15:11.670Z,12.73
2022-08-25T01:17:54.744Z,12.93
2022-08-25T01:20:29.383Z,13.27
2022-08-25T01:22:58.298Z,14.35
2022-08-25T01:25:39.615Z,14.38
2022-08-25T01:28:07.215Z,15.25
2022-08-25T01:30:35.090Z,15.20
2022-08-25T01:33:07.806Z,14.43
2022-08-25T01:35:36.212Z,15.60
2022-08-25T01:38:06.451Z,15.80
2022-08-25T01:40:36.154Z,16.88
2022-08-25T01:43:16.176Z,17.73
2022-08-25T01:45:47.467Z,16.05
2022-08-25T01:48:15.949Z,17.13
2022-08-25T01:50:44.250Z,15.55
2022-08-25T01:53:23.155Z,15.40
2022-08-25T01:55:54.213Z,15.65
2022-08-25T01:58:46.570Z,15.85
2022-08-25T02:01:19.007Z,15.13
2022-08-25T02:03:49.620Z,15.35
2022-08-25T02:06:29.804Z,16.52
2022-08-25T02:09:02.717Z,15.45
2022-08-25T02:11:29.720Z,15.93
2022-08-25T02:13:57.111Z,16.08
2022-08-25T02:16:31.512Z,15.82
2022-08-25T02:18:59.406Z,15.95
2022-08-25T02:21:27.088Z,16.67
2022-08-25T02:23:54.645Z,17.58
2022-08-25T02:26:22.557Z,15.90
2022-08-25T02:28:51.606Z,16.70
2022-08-25T02:31:22.691Z,17.77
2022-08-25T02:33:51.565Z,18.00
2022-08-25T02:36:19.856Z,17.38
2022-08-25T02:38:47.462Z,16.85
2022-08-25T02:41:25.207Z,17.10
2022-08-25T02:46:26.166Z,17.92
2022-08-25T02:48:53.737Z,18.95
2022-08-25T02:51:23.809Z,19.17
2022-08-25T02:53:51.295Z,20.23
2022-08-25T02:56:19.845Z,19.90
2022-08-25T02:58:47.828Z,19.60
2022-08-25T03:01:16.367Z,19.83
2022-08-25T03:03:46.135Z,18.83
2022-08-25T03:06:16.394Z,19.50
2022-08-25T03:08:44.611Z,20.02
2022-08-25T03:11:12.370Z,20.70
2022-08-25T03:13:39.788Z,19.77
2022-08-25T03:16:11.021Z,19.05
2022-08-25T03:18:40.798Z,18.57
2022-08-25T03:21:09.367Z,18.33
2022-08-25T03:23:36.313Z,19.50
2022-08-25T03:26:21.970Z,20.27
2022-08-25T03:28:49.057Z,19.15
2022-08-25T03:31:16.257Z,19.40
2022-08-25T03:33:43.556Z,18.83
2022-08-25T03:36:13.856Z,19.45
2022-08-25T03:38:42.012Z,18.30
2022-08-25T03:41:32.641Z,22.05
2022-08-25T03:44:01.302Z,18.05
2022-08-25T03:46:35.709Z,20.63
2022-08-25T03:49:05.217Z,20.13
2022-08-25T03:51:37.607Z,19.42
2022-08-25T03:54:05.760Z,21.17
2022-08-25T03:56:33.387Z,21.50
2022-08-25T03:59:01.331Z,20.27
2022-08-25T04:01:29.056Z,19.88
2022-08-25T04:03:56.302Z,19.27
2022-08-25T04:06:23.619Z,19.13
2022-08-25T04:08:52.882Z,18.35
2022-08-25T04:11:23.198Z,19.55
2022-08-25T04:13:52.042Z,21.80
2022-08-25T04:17:02.212Z,21.10
2022-08-25T04:19:29.367Z,19.83
2022-08-25T04:21:57.341Z,20.35
2022-08-25T04:24:25.152Z,19.92
2022-08-25T04:26:53.223Z,20.80
2022-08-25T04:29:23.980Z,20.85
2022-08-25T04:31:53.199Z,18.48
2022-08-25T04:34:30.289Z,20.77
2022-08-25T04:37:01.312Z,20.33
2022-08-25T04:39:28.961Z,22.10
2022-08-25T04:41:56.405Z,23.65
2022-08-25T04:44:23.711Z,22.13
2022-08-25T04:46:50.888Z,21.52
2022-08-25T04:49:18.542Z,22.70
2022-08-25T04:51:46.024Z,22.13
2022-08-25T04:54:21.908Z,21.77
2022-08-25T04:56:54.563Z,22.63
2022-08-25T04:59:30.527Z,22.85
2022-08-25T05:02:03.332Z,23.63
2022-08-25T05:04:33.080Z,22.50
2022-08-25T05:07:01.317Z,24.00
2022-08-25T05:09:29.187Z,23.70
2022-08-25T05:12:04.192Z,23.63
2022-08-25T05:14:32.489Z,23.35
2022-08-25T05:16:59.773Z,22.92
2022-08-25T05:19:27.315Z,25.25
2022-08-25T05:21:54.644Z,26.20
2022-08-25T05:25:26.320Z,27.35
2022-08-25T05:27:53.545Z,26.77
2022-08-25T05:30:20.744Z,27.10
2022-08-25T05:32:47.953Z,25.05
2022-08-25T05:35:16.261Z,23.45
2022-08-25T05:37:43.674Z,24.95
2022-08-25T05:40:11.708Z,24.65
2022-08-25T05:42:40.529Z,25.55
2022-08-25T05:45:09.905Z,26.67
2022-08-25T05:47:44.443Z,28.15
2022-08-25T05:50:12.432Z,26.15
2022-08-25T05:52:39.824Z,24.58
2022-08-25T05:55:07.479Z,26.67
2022-08-25T05:57:35.933Z,23.48
2022-08-25T06:00:09.163Z,24.42
2022-08-25T06:02:43.882Z,26.27
2022-08-25T06:05:16.309Z,27.60
2022-08-25T06:07:45.157Z,25.55
2022-08-25T06:10:13.710Z,24.27
2022-08-25T06:12:46.494Z,22.33
2022-08-25T06:15:17.459Z,21.98
2022-08-25T06:17:44.722Z,20.52
2022-08-25T06:20:22.130Z,18.00
2022-08-25T06:22:54.740Z,16.88
2022-08-25T06:25:24.873Z,17.75
2022-08-25T06:27:52.195Z,17.85
2022-08-25T06:30:25.734Z,15.82
2022-08-25T06:32:56.002Z,13.82
2022-08-25T06:36:50.364Z,13.63
2022-08-25T06:39:17.540Z,13.93
2022-08-25T06:41:44.819Z,12.90
2022-08-25T06:44:12.650Z,12.65
2022-08-25T06:46:39.728Z,13.68
2022-08-25T06:49:09.503Z,14.00
2022-08-25T06:51:38.399Z,14.15
2022-08-25T06:54:07.994Z,14.07
2022-08-25T06:56:35.016Z,12.30
2022-08-25T06:59:04.714Z,11.60
2022-08-25T07:01:32.675Z,11.20
2022-08-25T07:04:02.943Z,10.38
2022-08-25T07:06:35.370Z,8.90
2022-08-25T07:12:06.380Z,6.93
2022-08-25T07:14:33.464Z,5.72
2022-08-25T07:17:00.916Z,6.32
2022-08-25T07:19:28.412Z,6.30
2022-08-25T07:21:59.245Z,6.43
2022-08-25T07:24:26.404Z,6.70
2022-08-25T07:26:53.656Z,5.63
2022-08-25T07:29:31.718Z,6.85
2022-08-25T07:32:02.595Z,7.38
2022-08-25T07:34:52.321Z,5.63
2022-08-25T07:40:18.300Z,6.35
2022-08-25T07:42:46.729Z,6.53
2022-08-25T07:45:17.304Z,6.22
2022-08-25T07:47:51.592Z,5.20
2022-08-25T07:50:19.868Z,5.25
2022-08-25T07:52:53.931Z,5.40
2022-08-25T07:55:28.151Z,5.38
2022-08-25T07:57:57.499Z,5.05
2022-08-25T08:00:27.839Z,4.55
2022-08-25T08:02:55.609Z,4.25
2022-08-25T08:05:24.237Z,3.67
2022-08-25T08:07:53.071Z,4.43
2022-08-25T08:13:10.340Z,4.80
2022-08-25T08:15:38.036Z,3.95
2022-08-25T08:19:02.798Z,3.63
2022-08-25T08:21:35.086Z,2.58
2022-08-25T08:24:05.084Z,2.88
2022-08-25T08:26:57.411Z,3.58
2022-08-25T08:29:25.301Z,2.22
2022-08-25T08:31:53.406Z,2.10
2022-08-25T08:34:24.807Z,2.97
2022-08-25T08:36:53.048Z,3.10
2022-08-25T08:39:20.282Z,2.38
2022-08-25T08:42:11.287Z,3.20
2022-08-25T08:44:45.287Z,3.33
2022-08-25T08:47:40.177Z,2.85
2022-08-25T08:50:38.177Z,2.83
2022-08-25T08:53:34.107Z,2.85
2022-08-25T08:56:07.574Z,1.42
2022-08-25T08:58:49.905Z,2.30
2022-08-25T09:01:28.515Z,2.08
2022-08-25T09:04:20.327Z,2.38
2022-08-25T09:06:52.287Z,2.22
2022-08-25T09:09:30.962Z,2.60
2022-08-25T09:12:12.273Z,2.95
2022-08-25T09:14:55.054Z,2.40
2022-08-25T09:17:57.990Z,1.98
2022-08-25T09:20:47.339Z,1.75
2022-08-25T09:23:49.574Z,1.83
2022-08-25T09:27:45.402Z,1.40
2022-08-25T09:30:19.302Z,1.23
2022-08-25T09:33:02.156Z,2.08
2022-08-25T09:35:35.007Z,1.27
2022-08-25T09:38:08.984Z,0.52
2022-08-25T09:40:42.575Z,1.05
2022-08-25T09:46:10.811Z,0.35
2022-08-25T09:48:48.441Z,0.60
2022-08-25T09:51:42.766Z,0.85
2022-08-25T09:54:13.108Z,1.13
2022-08-25T09:57:02.041Z,2.15
2022-08-25T09:59:36.484Z,1.88
2022-08-25T10:02:29.838Z,1.50
2022-08-25T10:04:57.382Z,1.67
2022-08-25T10:07:32.309Z,1.92
2022-08-25T10:10:03.250Z,0.95
2022-08-25T10:12:42.458Z,0.85
2022-08-25T10:15:16.270Z,1.20
2022-08-25T10:18:25.889Z,1.40
2022-08-25T10:21:13.625Z,0.85
2022-08-25T10:23:55.866Z,1.17
2022-08-25T10:27:00.260Z,1.30
2022-08-25T10:29:34.746Z,0.93
2022-08-25T10:32:27.703Z,0.73
2022-08-25T10:39:03.010Z,0.70
2022-08-25T10:41:53.485Z,0.77
2022-08-25T10:45:25.521Z,0.70
2022-08-25T10:47:58.710Z,0.80
2022-08-25T10:50:54.769Z,0.98
2022-08-25T10:53:56.312Z,1.88
2022-08-25T10:56:32.541Z,1.23
2022-08-25T10:59:23.956Z,0.88
2022-08-25T11:02:34.921Z,0.98
2022-08-25T11:05:29.066Z,0.65
2022-08-25T11:08:33.797Z,0.80
2022-08-25T11:11:40.374Z,1.10
2022-08-25T11:14:34.591Z,0.93
2022-08-25T11:17:18.347Z,0.80
2022-08-25T11:22:46.519Z,0.73
2022-08-25T11:25:46.082Z,0.47
2022-08-25T11:28:15.806Z,0.75
2022-08-25T11:30:44.627Z,0.77
2022-08-25T11:33:19.572Z,0.70
2022-08-25T11:35:54.178Z,0.85
2022-08-25T11:38:36.973Z,0.93
2022-08-25T11:41:18.551Z,0.80
2022-08-25T11:44:06.896Z,1.45
2022-08-25T11:46:55.141Z,0.40
2022-08-25T11:49:37.931Z,0.77
2022-08-25T11:52:38.282Z,0.50
2022-08-25T11:55:16.496Z,1.25
2022-08-25T11:57:51.553Z,0.50
2022-08-25T12:01:54.469Z,0.88
2022-08-25T12:04:44.992Z,1.10
2022-08-25T12:07:22.831Z,0.73
2022-08-25T12:09:51.081Z,0.73
2022-08-25T12:12:42.820Z,0.55
2022-08-25T12:15:18.978Z,0.95
2022-08-25T12:18:13.589Z,0.55
2022-08-25T12:21:13.516Z,1.25
2022-08-25T12:24:11.934Z,0.60
2022-08-25T12:26:47.824Z,0.68
2022-08-25T12:29:22.680Z,0.85
2022-08-25T12:32:23.265Z,0.90
2022-08-25T12:35:09.137Z,0.60
2022-08-25T12:37:58.397Z,0.68
2022-08-25T12:40:33.470Z,0.80
2022-08-25T12:43:10.899Z,0.45
2022-08-25T12:45:43.411Z,0.60
2022-08-25T12:48:29.264Z,0.47
2022-08-25T12:51:20.535Z,1.10
2022-08-25T12:53:53.487Z,1.20
2022-08-25T12:56:39.578Z,0.98
2022-08-25T12:59:22.639Z,0.45
2022-08-25T13:02:36.728Z,0.82
2022-08-25T13:05:46.461Z,0.90
2022-08-25T13:09:01.292Z,1.02
2022-08-25T13:11:43.316Z,0.60
2022-08-25T13:14:41.671Z,1.27
2022-08-25T13:17:25.216Z,0.70
2022-08-25T13:19:52.322Z,1.08
2022-08-25T13:22:21.586Z,1.30
2022-08-25T13:24:51.220Z,1.48
2022-08-25T13:27:25.463Z,1.02
2022-08-25T13:29:58.236Z,0.93
2022-08-25T13:32:35.330Z,1.15
2022-08-25T13:35:20.974Z,1.55
2022-08-25T13:37:49.601Z,1.25
2022-08-25T13:40:33.844Z,1.08
2022-08-25T13:43:05.781Z,0.73
2022-08-25T13:45:45.466Z,1.00
2022-08-25T13:48:22.988Z,0.82
2022-08-25T13:51:09.872Z,0.90
2022-08-25T13:53:39.072Z,0.90
2022-08-25T13:56:07.325Z,0.93
2022-08-25T13:58:44.723Z,1.35
2022-08-25T14:01:45.841Z,0.73
2022-08-25T14:04:39.892Z,0.95
2022-08-25T14:07:21.636Z,0.90
2022-08-25T14:10:00.139Z,2.38
2022-08-25T14:12:39.585Z,1.77
2022-08-25T14:15:32.057Z,1.10
2022-08-25T14:18:13.825Z,1.57
2022-08-25T14:20:50.795Z,1.13
2022-08-25T14:23:31.239Z,1.80
2022-08-25T14:25:58.606Z,1.08
2022-08-25T14:28:30.361Z,1.08
2022-08-25T14:31:03.113Z,2.67
2022-08-25T14:34:04.677Z,1.45
2022-08-25T14:36:34.822Z,1.02
2022-08-25T14:39:08.693Z,1.20
2022-08-25T14:41:41.033Z,0.70
2022-08-25T14:44:10.068Z,0.47
2022-08-25T14:46:43.660Z,0.43
2022-08-25T14:49:24.702Z,0.65
2022-08-25T14:51:52.655Z,0.50
2022-08-25T14:54:23.756Z,0.50
2022-08-25T14:56:51.554Z,0.32
2022-08-25T14:59:19.026Z,1.42
2022-08-25T15:01:47.275Z,0.50
2022-08-25T15:04:22.481Z,0.63
2022-08-25T15:06:56.721Z,0.53
2022-08-25T15:09:25.394Z,1.40
2022-08-25T15:12:00.913Z,0.98
2022-08-25T15:14:28.874Z,0.80
2022-08-25T15:17:02.334Z,0.40
2022-08-25T15:19:29.833Z,0.40
2022-08-25T15:21:58.030Z,0.40
2022-08-25T15:24:28.604Z,0.30
2022-08-25T15:26:59.656Z,0.50
2022-08-25T15:29:30.174Z,0.70
2022-08-25T15:32:00.490Z,0.50
2022-08-25T15:34:28.830Z,0.43
2022-08-25T15:37:08.617Z,0.68
2022-08-25T15:39:37.911Z,1.05
2022-08-25T15:42:07.079Z,0.95
2022-08-25T15:44:36.136Z,0.55
2022-08-25T15:47:05.048Z,1.92
2022-08-25T15:49:32.403Z,0.70
2022-08-25T15:52:00.378Z,0.55
2022-08-25T15:54:29.026Z,0.60
2022-08-25T15:56:58.668Z,1.10
2022-08-25T15:59:28.379Z,0.77
2022-08-25T16:01:56.748Z,0.60
2022-08-25T16:04:28.322Z,0.32
2022-08-25T16:06:56.073Z,0.63
2022-08-25T16:09:23.752Z,0.38
2022-08-25T16:11:56.606Z,0.32
2022-08-25T16:14:26.361Z,0.50
2022-08-25T16:16:58.233Z,0.40
2022-08-25T16:19:28.528Z,0.40
2022-08-25T16:21:55.963Z,0.50
2022-08-25T16:24:24.397Z,0.57
2022-08-25T16:26:52.721Z,0.40
2022-08-25T16:29:23.026Z,0.43
2022-08-25T16:31:54.880Z,0.40
2022-08-25T16:34:24.440Z,0.52
2022-08-25T16:36:53.314Z,0.45
2022-08-25T16:39:23.835Z,0.60
2022-08-25T16:41:53.244Z,0.50
2022-08-25T16:44:22.898Z,0.60
2022-08-25T16:46:54.670Z,0.57
2022-08-25T16:49:24.195Z,0.52
2022-08-25T16:51:57.448Z,0.43
2022-08-25T16:57:12.160Z,0.50
2022-08-25T16:59:39.654Z,1.00
2022-08-25T17:02:07.166Z,1.00
2022-08-25T17:04:34.518Z,0.70
2022-08-25T17:07:02.144Z,1.17
2022-08-25T17:09:30.689Z,0.55
2022-08-25T17:11:57.987Z,0.43
2022-08-25T17:14:25.397Z,0.60
2022-08-25T17:16:55.190Z,0.70
2022-08-25T17:19:23.948Z,1.15
2022-08-25T17:21:52.433Z,0.68
2022-08-25T17:24:19.665Z,0.65
2022-08-25T17:26:50.041Z,0.70
2022-08-25T17:29:18.465Z,0.55
2022-08-25T17:31:48.575Z,0.52
2022-08-25T17:34:16.946Z,0.63
2022-08-25T17:36:49.528Z,0.50
2022-08-25T17:39:18.424Z,0.52
2022-08-25T17:41:46.165Z,0.32
2022-08-25T17:44:13.713Z,0.80
2022-08-25T17:46:47.312Z,0.43
2022-08-25T17:49:18.686Z,0.73
2022-08-25T17:51:45.655Z,0.60
2022-08-25T17:54:13.728Z,0.60
2022-08-25T17:56:41.336Z,0.88
2022-08-25T17:59:09.304Z,0.40
2022-08-25T18:01:40.747Z,0.60
2022-08-25T18:04:17.522Z,0.65
2022-08-25T18:06:47.552Z,0.50
2022-08-25T18:09:16.515Z,0.65
2022-08-25T18:11:45.815Z,0.60
2022-08-25T18:14:16.445Z,0.60
2022-08-25T18:16:43.652Z,0.75
2022-08-25T18:19:12.454Z,0.63
2022-08-25T18:21:41.702Z,1.20
2022-08-25T18:24:11.211Z,0.60
2022-08-25T18:26:38.263Z,0.68
2022-08-25T18:29:05.850Z,0.80
2022-08-25T18:31:33.152Z,0.77
2022-08-25T18:34:00.235Z,0.60
2022-08-25T18:36:27.712Z,0.90
2022-08-25T18:39:13.769Z,1.17
2022-08-25T18:41:42.667Z,0.60
2022-08-25T18:44:12.349Z,0.63
2022-08-25T18:46:43.075Z,0.40
2022-08-25T18:49:15.595Z,0.90
2022-08-25T18:51:45.143Z,0.50
2022-08-25T18:54:22.705Z,0.65
2022-08-25T18:56:53.917Z,0.50
2022-08-25T18:59:23.625Z,0.52
2022-08-25T19:01:54.121Z,1.20
2022-08-25T19:04:28.674Z,0.80
2022-08-25T19:07:01.214Z,0.70
2022-08-25T19:09:30.609Z,0.70
2022-08-25T19:11:58.159Z,0.88
2022-08-25T19:14:26.468Z,0.90
2022-08-25T19:16:54.521Z,0.65
2022-08-25T19:19:23.146Z,1.05
2022-08-25T19:21:50.963Z,1.10
2022-08-25T19:24:19.424Z,0.60
2022-08-25T19:26:46.895Z,0.75
2022-08-25T19:29:17.811Z,1.38
2022-08-25T19:31:48.152Z,0.93
2022-08-25T19:34:22.723Z,1.10
2022-08-25T19:36:50.955Z,1.55
2022-08-25T19:39:18.552Z,1.30
2022-08-25T19:41:46.707Z,1.30
2022-08-25T19:44:16.080Z,1.25
2022-08-25T19:46:45.231Z,1.35
2022-08-25T19:49:22.478Z,1.52
2022-08-25T19:51:53.217Z,1.65
2022-08-25T19:54:34.269Z,1.42
2022-08-25T19:59:43.122Z,0.95
2022-08-25T20:02:16.829Z,1.13
2022-08-25T20:07:23.943Z,1.50
2022-08-25T20:09:54.304Z,1.80
2022-08-25T20:12:23.783Z,0.90
2022-08-25T20:14:52.226Z,1.17
2022-08-25T20:17:24.295Z,1.42
2022-08-25T20:19:59.610Z,0.98
2022-08-25T20:22:29.980Z,1.10
2022-08-25T20:25:02.774Z,1.40
2022-08-25T20:27:39.741Z,1.92
2022-08-25T20:30:27.765Z,1.00
2022-08-25T20:32:57.095Z,1.08
2022-08-25T20:35:27.456Z,1.10
2022-08-25T20:37:59.360Z,1.73
2022-08-25T20:40:30.127Z,1.30
2022-08-25T20:43:03.027Z,2.00
2022-08-25T20:45:30.446Z,1.70
2022-08-25T20:47:57.439Z,1.80
2022-08-25T20:50:25.306Z,1.55
2022-08-25T20:52:56.689Z,1.73
2022-08-25T20:55:25.052Z,2.00
2022-08-25T20:57:53.629Z,1.63
2022-08-25T21:00:23.612Z,1.60
2022-08-25T21:02:52.947Z,2.20
2022-08-25T21:05:20.710Z,2.75
2022-08-25T21:07:48.411Z,2.38
2022-08-25T21:10:16.222Z,2.22
2022-08-25T21:12:45.075Z,2.63
2022-08-25T21:15:17.028Z,2.63
2022-08-25T21:17:50.663Z,2.97
2022-08-25T21:20:18.905Z,3.72
2022-08-25T21:22:55.790Z,3.55
2022-08-25T21:25:24.163Z,3.30
2022-08-25T21:27:52.568Z,2.83
2022-08-25T21:30:19.703Z,3.20
2022-08-25T21:32:52.886Z,3.85
2022-08-25T21:35:23.450Z,3.30
2022-08-25T21:37:53.273Z,3.17
2022-08-25T21:40:23.667Z,3.13
2022-08-25T21:42:52.376Z,3.08
2022-08-25T21:45:20.890Z,3.05
2022-08-25T21:47:49.035Z,3.35
2022-08-25T21:50:15.986Z,3.25
2022-08-25T21:52:42.954Z,3.22
2022-08-25T21:55:16.054Z,3.90
2022-08-25T21:57:44.190Z,3.33
2022-08-25T22:00:13.559Z,3.10
2022-08-25T22:02:44.051Z,3.20
2022-08-25T22:05:12.414Z,3.63
2022-08-25T22:07:43.996Z,3.28
2022-08-25T22:10:17.795Z,3.30
2022-08-25T22:12:47.979Z,4.10
2022-08-25T22:15:16.479Z,4.22
2022-08-25T22:17:47.892Z,4.50
2022-08-25T22:20:18.666Z,4.28
2022-08-25T22:22:46.404Z,3.97
2022-08-25T22:25:13.865Z,4.85
2022-08-25T22:27:41.674Z,4.70
2022-08-25T22:30:09.592Z,4.20
2022-08-25T22:32:37.130Z,4.40
2022-08-25T22:35:04.878Z,4.68
2022-08-25T22:37:31.959Z,5.65
2022-08-25T22:40:04.321Z,4.70
2022-08-25T22:42:31.509Z,4.55
2022-08-25T22:44:58.583Z,4.63
2022-08-25T22:47:25.560Z,4.53
2022-08-25T22:49:55.386Z,3.83
2022-08-25T22:52:22.541Z,3.75
2022-08-25T22:55:01.163Z,4.25
2022-08-25T22:57:28.474Z,3.70
2022-08-25T22:59:56.719Z,3.90
2022-08-25T23:02:23.741Z,4.20
2022-08-25T23:04:50.917Z,3.92
2022-08-25T23:07:24.030Z,4.45
2022-08-25T23:09:51.540Z,4.13
2022-08-25T23:12:18.588Z,5.10
2022-08-25T23:14:46.040Z,4.63
2022-08-25T23:17:13.822Z,4.82
2022-08-25T23:19:40.818Z,5.32
2022-08-25T23:22:10.895Z,5.63
2022-08-25T23:24:45.927Z,5.30
2022-08-25T23:27:17.079Z,5.55
2022-08-25T23:29:48.737Z,5.50
2022-08-25T23:32:18.995Z,5.55
2022-08-25T23:34:47.344Z,5.15
2022-08-25T23:37:16.261Z,3.80
2022-08-25T23:39:49.508Z,5.45
2022-08-25T23:42:18.022Z,5.82
2022-08-25T23:44:45.249Z,4.95
2022-08-25T23:47:12.420Z,6.22
2022-08-25T23:49:39.853Z,5.55
2022-08-25T23:52:07.119Z,7.38
2022-08-25T23:54:34.151Z,6.95
2022-08-25T23:57:01.609Z,7.50
2022-08-25T23:59:28.992Z,7.43
